x

Buoy B01 - Western Maine Shelf (44030) Wave Buoy

7:04 - Tue 25th Apr 2017 All times are EDT. -4 hours from GMT.

  • Sig Wave height 1.6ft
  • Peak Period 3s
  • Wind
    11mph, 13mph gusts
  • Sea Temp 44°f
  • Luft Temp 44°f
  • Sea Pressure 1026.4mb
  • Buoy B01 - Western Maine Shelf
  • Buoy B01 - Western Maine Shelf

More Historic Weather Station data

Upgrade to MSW Pro to gain access to the past 30 days of data for over 8000 Wavebouys and Weather Stations around the globe.

Join Pro

Comparision Forecast

View Surf forecast
   
Di 04/25 7:04 1.6ft 3s 11 13 mph 1026.4mb 44f 44f
6:04 1.6ft 4s 13 16 mph 1025.2mb 45f 45f
5:04 3ft 11s 9 11 mph 1025mb 45f 45f
4:04 2.5ft 11s 7 11 mph 1024.8mb 46f 46f
3:04 3ft 11s 4 7 mph 1024.5mb 46f 46f
2:04 1.6ft 4s 11 13 mph 1023.9mb 46f 46f
1:04 2.5ft 6s 9 11 mph 1023.7mb 46f 47f
Mo 04/24 11:04 2.5ft 8s 13
mph
1023.4mb 47f 46f
10:04  -   -  13 16 mph 1023.1mb 47f 46f
9:04 3ft 11s 13 16 mph 1022.8mb 47f 46f
8:04 2.5ft 11s 13 16 mph 1022mb 47f 47f
7:04 2.5ft 11s 9 13 mph 1021.6mb 48f 47f
6:04 2.5ft 11s 4 7 mph 1021.1mb 48f 48f
4:04 2.5ft 8s 4
mph
1021mb 47f 49f
3:04 3ft 11s 9 11 mph 1020.8mb 48f 48f
2:04 2.5ft 11s 9 11 mph 1021.1mb 49f 48f
1:04 3ft 11s 7
mph
1021.7mb 49f 48f
12:04 3ft 11s 4 7 mph 1021.6mb 47f 49f
11:04 3ft 11s 4 7 mph 1021.5mb 46f 50f
10:04 3ft 11s 2
mph
1021.1mb 46f 49f
9:04 2.5ft 6s 2
mph
1021mb 45f 47f
8:04 3.5ft 8s 2 4 mph 1020.3mb 44f 46f
7:04 3.5ft 11s 7
mph
1019.4mb 44f 46f
6:04 3.5ft 11s 7
mph
1018.8mb 44f 45f
5:04 3.5ft 11s 7 9 mph 1018.3mb 44f 45f
4:04 4.5ft 11s 11 13 mph 1017.4mb 44f 45f
3:04 4.5ft 11s 16 18 mph 1017.1mb 44f 46f
2:04 4.5ft 11s 16 18 mph 1016.9mb 44f 46f
1:04 4.5ft 11s 11 13 mph 1016.8mb 44f 46f
12:04 5ft 11s 16 18 mph 1016.9mb 44f 47f
So 04/23 11:04 4ft 11s 13 16 mph 1017.1mb 44f 46f
10:04 5ft 5s 16 20 mph 1016.9mb 44f 46f
9:04 4ft 5s 20 22 mph 1016.7mb 44f 46f
8:04 5ft 11s 18 22 mph 1016.6mb 44f 46f
7:04 3ft 4s 20 22 mph 1016.1mb 44f 46f
6:04  -   -  18 20 mph 1016.1mb 44f 46f
5:04 4.5ft 11s 18 20 mph 1016.1mb 45f 46f
4:04 4.5ft 11s 16 18 mph 1016.9mb 45f 46f
3:04 4.5ft 11s 16 18 mph 1017.2mb 45f 46f
2:04  -   -  13
mph
1017.6mb 45f 46f
1:04 5ft 11s 11
mph
1017.7mb 45f 46f
12:04 4.5ft 11s 7
mph
1017.9mb 45f 46f
11:04 5ft 11s 2 4 mph 1018.2mb 44f 46f
10:04 4.5ft 8s 2 4 mph 1018.1mb 43f 46f
9:04 4.5ft 8s 4
mph
1017.9mb 43f 44f
8:04 5ft 8s 9 11 mph 1017.3mb 43f 44f
7:04 4ft 8s 9 11 mph 1016.3mb 43f 44f
6:04 5ft 8s 9 11 mph 1015.5mb 43f 41f
5:04 6ft 8s 9 11 mph 1015mb 43f 41f
4:04 6ft 8s 9 11 mph 1015mb 43f 42f
3:04 6ft 11s 11 16 mph 1015mb 43f 41f
2:04 7ft 8s 7 11 mph 1015.1mb 43f 41f
1:04 7ft 8s 7 9 mph 1014.9mb 43f 42f
12:04 7ft 8s 9 11 mph 1014.7mb 44f 42f
Sa 04/22 11:04 7.5ft 8s 11 13 mph 1014.6mb 44f 42f
10:04 6ft 8s 11 13 mph 1014.5mb 44f 42f
9:04 6ft 8s 11
mph
1014.4mb 44f 42f
8:04 6ft 8s 11 13 mph 1014.2mb 44f 41f
7:04 6ft 8s 13 16 mph 1014.2mb 44f 41f
6:04 7ft 8s 16 18 mph 1013.9mb 44f 41f
5:04 7.5ft 8s 16 18 mph 1013.8mb 44f 41f
4:04 7ft 8s 18 20 mph 1013.4mb 44f 41f
3:04 6.5ft 11s 18 22 mph 1013.9mb 44f 40f
2:04 6ft 6s 16 20 mph 1014.1mb 44f 41f
1:04 6.5ft 6s 13 16 mph 1014.2mb 44f 41f
12:04 5.5ft 6s 13 16 mph 1014.2mb 44f 41f
11:04 6ft 6s 13 16 mph 1014.4mb 44f 41f
10:04 6.5ft 11s 16 18 mph 1014.6mb 44f 41f
9:04 7ft 6s 13 18 mph 1015mb 44f 42f
8:04 6ft 8s 18 20 mph 1014.7mb 44f 41f
7:04 6.5ft 6s 18 20 mph 1014.7mb 44f 42f
6:04 6ft 6s 20 22 mph 1014.7mb 44f 41f
5:04 6ft 6s 20 25 mph 1014.8mb 44f 41f
4:04 6ft 6s 18 20 mph 1015.6mb 44f 41f
3:04 7ft 8s 18 20 mph 1015.8mb 44f 41f
2:04 6ft 8s 16 18 mph 1016.1mb 44f 41f
1:04 6.5ft 6s 16
mph
1016.7mb 44f 41f
12:04 6ft 6s 13 16 mph 1016.9mb 44f 42f
Fr 04/21 11:04 6ft 6s 13 16 mph 1017.1mb 44f 42f
10:04 6ft 6s 11 13 mph 1017.8mb 44f 42f
9:04 6.5ft 6s 18 20 mph 1017.1mb 44f 41f
8:04 6.5ft 6s 20 22 mph 1016.3mb 43f 41f
7:04 6ft 6s 18 22 mph 1016.9mb 43f 41f
6:04 7ft 6s 18 22 mph 1017.3mb 43f 41f
5:04 6.5ft 6s 20 22 mph 1017.2mb 43f 42f
4:04 6ft 6s 22 25 mph 1017.4mb 43f 41f
3:04 7ft 6s 18 20 mph 1018.7mb 43f 41f
2:04 7ft 6s 18 20 mph 1019.3mb 43f 41f
1:04 5.5ft 5s 18 20 mph 1019.6mb 44f 40f